Effie, Minnesota
Current Conditions -  °F | °C
As of 1:53 AM on Friday 19 Dec 2014 (Local Time) from KFOZ Reporting Station
Overcast Overcast  
Wind Chill: -6°   Ceiling: 500
Heat Index: -6°   Visibility: 10mi
Dew Point: -8°   Wind: 3mph
Humidity: 86%   Direction: 190°S
Pressure: 30.19"   Gusts: NA
Location:  47.84°N, 93.64°W
Report Text: KFOZ 190753Z AUTO 19003KT 10SM OVC005 M06/M08 A3019 RMK AO2
Loading
Personal Weather Stations






























Interactive Weather Map New forecast layout! Learn more

10-Day Weather Forecast

Advertisements
Track Severe Weather on mobile